createdAt,value
2023-03-21T00:03:54.831Z,12.77
2023-03-21T00:07:56.573Z,12.91
2023-03-21T00:12:01.599Z,12.52
2023-03-21T00:16:18.776Z,12.81
2023-03-21T00:20:23.332Z,12.75
2023-03-21T00:24:24.814Z,12.61
2023-03-21T00:28:27.730Z,12.59
2023-03-21T00:32:29.366Z,12.64
2023-03-21T00:36:31.900Z,12.45
2023-03-21T00:40:40.439Z,12.59
2023-03-21T00:44:45.027Z,12.74
2023-03-21T00:48:46.421Z,12.89
2023-03-21T00:52:47.861Z,12.90
2023-03-21T00:56:49.412Z,12.92
2023-03-21T01:00:50.873Z,12.76
2023-03-21T01:04:54.024Z,12.72
2023-03-21T01:08:55.667Z,12.64
2023-03-21T01:12:57.096Z,12.60
2023-03-21T01:16:58.521Z,12.44
2023-03-21T01:21:00.730Z,12.69
2023-03-21T01:25:19.113Z,11.99
2023-03-21T01:29:23.620Z,12.95
2023-03-21T01:33:25.229Z,12.70
2023-03-21T01:37:26.769Z,13.11
2023-03-21T01:41:44.401Z,12.52
2023-03-21T01:46:21.804Z,12.50
2023-03-21T01:50:33.142Z,12.67
2023-03-21T01:55:03.743Z,12.95
2023-03-21T01:59:17.324Z,12.77
2023-03-21T02:03:52.024Z,13.08
2023-03-21T02:08:33.363Z,12.92
2023-03-21T02:12:43.157Z,12.71
2023-03-21T02:16:59.418Z,12.97
2023-03-21T02:21:22.710Z,12.74
2023-03-21T02:25:55.902Z,12.64
2023-03-21T02:30:04.575Z,12.82
2023-03-21T02:34:32.363Z,12.75
2023-03-21T02:38:47.389Z,13.07
2023-03-21T02:43:00.954Z,13.12
2023-03-21T02:47:29.021Z,13.02
2023-03-21T02:51:33.365Z,13.21
2023-03-21T02:55:37.459Z,12.94
2023-03-21T02:59:51.619Z,12.69
2023-03-21T03:03:59.887Z,12.91
2023-03-21T03:08:14.301Z,12.94
2023-03-21T03:12:18.580Z,12.07
2023-03-21T03:16:50.766Z,13.10
2023-03-21T03:21:14.054Z,13.40
2023-03-21T03:25:35.857Z,13.44
2023-03-21T03:29:46.415Z,13.59
2023-03-21T03:33:56.146Z,13.61
2023-03-21T03:38:02.448Z,13.56
2023-03-21T03:42:28.190Z,12.80
2023-03-21T03:46:50.967Z,12.85
2023-03-21T03:51:02.474Z,12.64
2023-03-21T03:55:27.183Z,12.83
2023-03-21T03:59:41.436Z,12.91
2023-03-21T04:04:12.587Z,13.01
2023-03-21T04:08:17.260Z,13.05
2023-03-21T04:12:24.541Z,13.06
2023-03-21T04:16:54.580Z,13.17
2023-03-21T04:20:56.368Z,13.21
2023-03-21T04:25:00.258Z,13.21
2023-03-21T04:29:04.394Z,13.09
2023-03-21T04:33:31.498Z,12.88
2023-03-21T04:37:34.824Z,12.39
2023-03-21T04:47:30.309Z,12.73
2023-03-21T04:51:56.523Z,12.73
2023-03-21T04:55:58.090Z,12.81
2023-03-21T04:59:59.587Z,12.85
2023-03-21T05:14:39.571Z,12.07
2023-03-21T05:18:42.184Z,12.46
2023-03-21T05:22:51.511Z,12.73
2023-03-21T05:26:56.077Z,12.50
2023-03-21T05:30:59.987Z,12.63
2023-03-21T05:35:02.539Z,12.71
2023-03-21T05:39:05.310Z,12.64
2023-03-21T05:43:10.699Z,12.68
2023-03-21T05:47:14.091Z,12.76
2023-03-21T05:51:21.158Z,12.71
2023-03-21T05:55:22.783Z,12.71
2023-03-21T05:59:27.477Z,12.45
2023-03-21T06:03:31.651Z,12.85
2023-03-21T06:07:40.125Z,12.10
2023-03-21T06:11:47.266Z,12.56
2023-03-21T06:15:51.317Z,12.40
2023-03-21T06:19:57.127Z,12.35
2023-03-21T06:24:03.678Z,12.23
2023-03-21T06:28:06.538Z,12.05
2023-03-21T06:32:13.201Z,12.41
2023-03-21T06:36:16.183Z,12.22
2023-03-21T06:40:19.061Z,12.23
2023-03-21T06:44:22.025Z,12.13
2023-03-21T06:48:32.345Z,12.32
2023-03-21T06:52:34.375Z,12.11
2023-03-21T06:56:36.913Z,12.11
2023-03-21T07:00:39.733Z,12.46
2023-03-21T07:04:41.892Z,12.76
2023-03-21T07:08:48.926Z,13.18
2023-03-21T07:12:51.669Z,12.97
2023-03-21T07:16:59.063Z,12.42
2023-03-21T07:21:00.654Z,13.31
2023-03-21T07:25:05.480Z,13.16
2023-03-21T07:29:12.970Z,12.77
2023-03-21T07:33:15.322Z,12.68
2023-03-21T07:37:17.053Z,13.37
2023-03-21T07:41:18.533Z,13.06
2023-03-21T07:45:21.761Z,13.54
2023-03-21T07:49:23.234Z,13.02
2023-03-21T07:53:27.497Z,12.95
2023-03-21T07:57:29.343Z,13.10
2023-03-21T08:01:31.348Z,12.98
2023-03-21T08:05:38.382Z,12.80
2023-03-21T08:09:40.349Z,12.86
2023-03-21T08:13:41.832Z,13.27
2023-03-21T08:17:45.543Z,14.05
2023-03-21T08:21:52.087Z,13.32
2023-03-21T08:25:54.925Z,12.77
2023-03-21T08:29:56.622Z,13.32
2023-03-21T08:34:02.881Z,13.44
2023-03-21T08:38:04.973Z,12.99
2023-03-21T08:42:06.491Z,12.92
2023-03-21T08:46:07.980Z,13.98
2023-03-21T08:50:13.478Z,13.96
2023-03-21T08:54:22.180Z,13.49
2023-03-21T08:58:23.617Z,14.09
2023-03-21T09:02:25.071Z,13.98
2023-03-21T09:06:28.006Z,14.08
2023-03-21T09:10:30.407Z,14.02
2023-03-21T09:14:33.410Z,13.80
2023-03-21T09:18:46.984Z,14.05
2023-03-21T09:22:50.260Z,14.45
2023-03-21T09:26:51.703Z,14.07
2023-03-21T09:30:55.240Z,14.12
2023-03-21T09:34:57.367Z,14.25
2023-03-21T09:38:59.512Z,13.84
2023-03-21T09:43:41.319Z,13.99
2023-03-21T09:47:49.450Z,14.16
2023-03-21T09:51:54.278Z,14.35
2023-03-21T09:55:56.004Z,14.45
2023-03-21T10:00:12.093Z,15.22
2023-03-21T10:04:18.856Z,15.22
2023-03-21T10:08:27.102Z,14.98
2023-03-21T10:12:31.028Z,14.53
2023-03-21T10:16:44.586Z,14.75
2023-03-21T10:20:46.806Z,15.25
2023-03-21T10:24:48.313Z,14.46
2023-03-21T10:28:53.350Z,15.23
2023-03-21T10:33:02.418Z,14.61
2023-03-21T10:37:05.482Z,15.31
2023-03-21T10:41:08.067Z,14.55
2023-03-21T10:45:19.423Z,15.07
2023-03-21T10:49:25.392Z,14.82
2023-03-21T10:53:35.901Z,14.69
2023-03-21T10:57:38.142Z,14.91
2023-03-21T11:01:43.664Z,14.72
2023-03-21T11:05:45.504Z,14.52
2023-03-21T11:09:58.910Z,15.25
2023-03-21T11:14:06.827Z,14.76
2023-03-21T11:18:20.379Z,15.15
2023-03-21T11:22:25.382Z,14.89
2023-03-21T11:26:32.478Z,14.91
2023-03-21T11:30:34.912Z,15.36
2023-03-21T11:34:47.481Z,15.01
2023-03-21T11:38:57.719Z,15.32
2023-03-21T11:43:01.452Z,14.92
2023-03-21T11:47:03.044Z,15.45
2023-03-21T11:51:15.754Z,15.13
2023-03-21T11:55:19.686Z,15.08
2023-03-21T11:59:36.427Z,15.33
2023-03-21T12:03:56.356Z,14.68
2023-03-21T12:08:16.533Z,15.46
2023-03-21T12:12:43.103Z,15.35
2023-03-21T12:17:23.651Z,15.50
2023-03-21T12:21:55.064Z,14.97
2023-03-21T12:26:03.502Z,15.27
2023-03-21T12:30:21.006Z,15.83
2023-03-21T12:34:37.231Z,15.94
2023-03-21T12:38:44.008Z,15.69
2023-03-21T12:43:01.500Z,15.59
2023-03-21T12:47:11.433Z,15.33
2023-03-21T12:51:18.081Z,15.57
2023-03-21T12:55:31.713Z,15.67
2023-03-21T12:59:41.919Z,15.62
2023-03-21T13:03:50.949Z,14.79
2023-03-21T13:07:58.966Z,15.37
2023-03-21T13:12:07.783Z,15.96
2023-03-21T13:16:22.387Z,15.07
2023-03-21T13:20:46.882Z,15.33
2023-03-21T13:24:50.934Z,15.37
2023-03-21T13:28:52.387Z,15.35
2023-03-21T13:33:14.868Z,14.90
2023-03-21T13:37:18.617Z,15.16
2023-03-21T13:41:49.088Z,15.16
2023-03-21T13:45:54.245Z,15.10
2023-03-21T13:50:14.598Z,14.90
2023-03-21T13:54:17.809Z,15.45
2023-03-21T13:58:39.159Z,15.44
2023-03-21T14:03:02.567Z,15.02
2023-03-21T14:07:11.474Z,15.56
2023-03-21T14:11:23.626Z,15.12
2023-03-21T14:15:43.700Z,15.94
2023-03-21T14:19:57.390Z,15.64
2023-03-21T14:24:12.405Z,15.36
2023-03-21T14:28:23.688Z,15.29
2023-03-21T14:32:31.134Z,15.47
2023-03-21T14:36:43.105Z,15.69
2023-03-21T14:40:52.402Z,15.05
2023-03-21T14:45:00.720Z,15.65
2023-03-21T14:49:21.017Z,15.73
2023-03-21T14:53:42.454Z,15.45
2023-03-21T14:57:44.044Z,15.09
2023-03-21T15:01:47.316Z,15.34
2023-03-21T15:05:49.146Z,14.90
2023-03-21T15:09:56.290Z,14.88
2023-03-21T15:14:00.908Z,14.86
2023-03-21T15:18:06.357Z,15.06
2023-03-21T15:22:18.698Z,14.69
2023-03-21T15:26:24.300Z,15.19
2023-03-21T15:30:28.806Z,15.08
2023-03-21T15:34:30.686Z,14.58
2023-03-21T15:38:45.028Z,14.79
2023-03-21T15:42:46.462Z,15.04
2023-03-21T15:46:50.799Z,15.67
2023-03-21T15:50:59.728Z,15.02
2023-03-21T15:55:02.939Z,15.42
2023-03-21T15:59:05.624Z,14.77
2023-03-21T16:03:16.842Z,15.20
2023-03-21T16:07:18.641Z,14.85
2023-03-21T16:11:22.721Z,15.30
2023-03-21T16:15:26.457Z,15.07
2023-03-21T16:19:29.648Z,15.00
2023-03-21T16:23:31.288Z,14.95
2023-03-21T16:27:32.720Z,14.67
2023-03-21T16:31:35.641Z,14.38
2023-03-21T16:35:37.113Z,14.80
2023-03-21T16:39:39.016Z,14.71
2023-03-21T16:43:43.196Z,14.93
2023-03-21T16:47:45.338Z,15.04
2023-03-21T16:51:46.950Z,14.79
2023-03-21T16:55:48.657Z,14.55
2023-03-21T16:59:50.618Z,14.62
2023-03-21T17:03:52.602Z,14.59
2023-03-21T17:07:54.837Z,14.72
2023-03-21T17:11:56.435Z,14.88
2023-03-21T17:15:57.968Z,14.68
2023-03-21T17:19:59.374Z,14.53
2023-03-21T17:24:00.914Z,14.58
2023-03-21T17:28:02.718Z,14.10
2023-03-21T17:32:04.284Z,14.46
2023-03-21T17:36:12.345Z,14.42
2023-03-21T17:40:14.056Z,14.42
2023-03-21T17:44:15.877Z,14.28
2023-03-21T17:48:17.445Z,14.97
2023-03-21T17:52:18.917Z,14.86
2023-03-21T17:56:25.745Z,14.62
2023-03-21T18:00:30.458Z,14.60
2023-03-21T18:04:31.962Z,14.92
2023-03-21T18:08:33.504Z,14.42
2023-03-21T18:12:34.936Z,14.50
2023-03-21T18:16:36.449Z,14.38
2023-03-21T18:20:54.663Z,13.96
2023-03-21T18:24:57.661Z,13.94
2023-03-21T18:33:20.963Z,13.79
2023-03-21T18:37:22.458Z,14.03
2023-03-21T18:41:23.901Z,13.52
2023-03-21T18:45:26.619Z,13.71
2023-03-21T18:50:06.046Z,13.93
2023-03-21T18:53:49.653Z,13.56
2023-03-21T18:57:53.764Z,13.97
2023-03-21T19:01:55.677Z,14.17
2023-03-21T19:06:00.501Z,13.93
2023-03-21T19:10:16.991Z,13.76
2023-03-21T19:14:19.891Z,13.96
2023-03-21T19:22:44.246Z,14.07
2023-03-21T19:26:46.117Z,13.86
2023-03-21T19:30:50.095Z,14.02
2023-03-21T19:34:51.879Z,13.74
2023-03-21T19:38:53.493Z,14.16
2023-03-21T19:42:54.924Z,14.06
2023-03-21T19:46:56.467Z,13.67
2023-03-21T19:51:26.377Z,13.92
2023-03-21T19:55:24.091Z,13.65
2023-03-21T19:59:25.567Z,13.74
2023-03-21T20:03:27.678Z,13.93
2023-03-21T20:07:31.234Z,14.03
2023-03-21T20:11:33.388Z,13.90
2023-03-21T20:15:44.922Z,14.17
2023-03-21T20:19:48.762Z,14.14
2023-03-21T20:23:50.744Z,13.99
2023-03-21T20:28:11.101Z,13.57
2023-03-21T20:32:14.188Z,13.62
2023-03-21T20:40:38.243Z,13.68
2023-03-21T20:44:58.372Z,13.75
2023-03-21T20:49:00.576Z,13.23
2023-03-21T20:53:07.194Z,13.12
2023-03-21T20:57:09.299Z,13.93
2023-03-21T21:01:15.433Z,13.84
2023-03-21T21:05:29.927Z,14.30
2023-03-21T21:09:33.554Z,14.01
2023-03-21T21:13:34.991Z,13.82
2023-03-21T21:21:57.917Z,13.43
2023-03-21T21:26:01.080Z,13.23
2023-03-21T21:30:02.774Z,12.88
2023-03-21T21:34:05.752Z,12.94
2023-03-21T21:38:07.800Z,13.01
2023-03-21T21:42:09.236Z,13.04
2023-03-21T21:46:11.583Z,12.93
2023-03-21T21:50:13.513Z,12.93
2023-03-21T21:54:18.031Z,12.75
2023-03-21T21:58:20.929Z,12.49
2023-03-21T22:02:26.657Z,12.87
2023-03-21T22:06:28.061Z,12.65
2023-03-21T22:10:32.389Z,12.33
2023-03-21T22:14:33.911Z,12.59
2023-03-21T22:18:38.362Z,12.60
2023-03-21T22:22:40.266Z,12.48
2023-03-21T22:26:41.815Z,12.62
2023-03-21T22:30:43.439Z,12.55
2023-03-21T22:34:44.899Z,12.67
2023-03-21T22:38:47.765Z,12.68
2023-03-21T22:42:49.269Z,12.64
2023-03-21T22:46:50.676Z,12.45
2023-03-21T22:50:52.138Z,12.38
2023-03-21T22:54:53.862Z,12.77
2023-03-21T22:58:57.037Z,12.85
2023-03-21T23:02:59.564Z,13.21
2023-03-21T23:07:01.198Z,13.24
2023-03-21T23:11:09.590Z,13.10
2023-03-21T23:15:11.562Z,13.20
2023-03-21T23:19:13.597Z,13.15
2023-03-21T23:23:16.574Z,13.13
2023-03-21T23:27:18.135Z,13.13
2023-03-21T23:31:22.613Z,13.13
2023-03-21T23:35:24.304Z,13.16
2023-03-21T23:39:26.434Z,13.53
2023-03-21T23:43:28.482Z,13.36
2023-03-21T23:47:30.876Z,13.31
2023-03-21T23:51:32.328Z,13.20
2023-03-21T23:55:33.751Z,13.43
2023-03-21T23:59:35.227Z,13.67
